sensor_id;sensor_type;location;lat;lon;timestamp;temperature;humidity
6098;DHT22;3077;50.922;6.584;2023-07-16T00:00:09;19.30;99.90
6098;DHT22;3077;50.922;6.584;2023-07-16T00:02:35;19.20;99.90
6098;DHT22;3077;50.922;6.584;2023-07-16T00:05:01;19.30;99.90
6098;DHT22;3077;50.922;6.584;2023-07-16T00:07:26;19.30;99.90
6098;DHT22;3077;50.922;6.584;2023-07-16T00:09:52;19.30;99.90
6098;DHT22;3077;50.922;6.584;2023-07-16T00:12:18;19.20;99.90
6098;DHT22;3077;50.922;6.584;2023-07-16T00:14:43;19.20;99.90
6098;DHT22;3077;50.922;6.584;2023-07-16T00:17:09;19.20;99.90
6098;DHT22;3077;50.922;6.584;2023-07-16T00:19:34;19.20;99.90
6098;DHT22;3077;50.922;6.584;2023-07-16T00:22:00;19.20;99.90
6098;DHT22;3077;50.922;6.584;2023-07-16T00:24:26;19.20;99.90
6098;DHT22;3077;50.922;6.584;2023-07-16T00:26:52;19.20;99.90
6098;DHT22;3077;50.922;6.584;2023-07-16T00:29:18;19.20;99.90
6098;DHT22;3077;50.922;6.584;2023-07-16T00:31:44;19.20;99.90
6098;DHT22;3077;50.922;6.584;2023-07-16T00:34:10;19.20;99.90
6098;DHT22;3077;50.922;6.584;2023-07-16T00:36:35;19.20;99.90
6098;DHT22;3077;50.922;6.584;2023-07-16T00:39:01;19.10;99.90
6098;DHT22;3077;50.922;6.584;2023-07-16T00:41:27;19.20;99.90
6098;DHT22;3077;50.922;6.584;2023-07-16T00:43:52;19.20;99.90
6098;DHT22;3077;50.922;6.584;2023-07-16T00:46:19;19.10;99.90
6098;DHT22;3077;50.922;6.584;2023-07-16T00:48:45;19.10;99.90
6098;DHT22;3077;50.922;6.584;2023-07-16T00:51:11;19.10;99.90
6098;DHT22;3077;50.922;6.584;2023-07-16T00:53:40;19.00;99.90
6098;DHT22;3077;50.922;6.584;2023-07-16T00:56:07;19.00;99.90
6098;DHT22;3077;50.922;6.584;2023-07-16T00:58:33;19.00;99.90
6098;DHT22;3077;50.922;6.584;2023-07-16T01:00:58;19.10;99.90
6098;DHT22;3077;50.922;6.584;2023-07-16T01:03:24;19.10;99.90
6098;DHT22;3077;50.922;6.584;2023-07-16T01:06:20;19.10;99.90
6098;DHT22;3077;50.922;6.584;2023-07-16T01:09:03;19.00;99.90
6098;DHT22;3077;50.922;6.584;2023-07-16T01:11:29;19.00;99.90
6098;DHT22;3077;50.922;6.584;2023-07-16T01:13:56;19.10;99.90
6098;DHT22;3077;50.922;6.584;2023-07-16T01:16:23;19.10;99.90
6098;DHT22;3077;50.922;6.584;2023-07-16T01:18:50;19.00;99.90
6098;DHT22;3077;50.922;6.584;2023-07-16T01:21:18;19.00;99.90
6098;DHT22;3077;50.922;6.584;2023-07-16T01:24:05;19.00;99.90
6098;DHT22;3077;50.922;6.584;2023-07-16T01:26:53;18.90;99.90
6098;DHT22;3077;50.922;6.584;2023-07-16T01:29:41;18.90;99.90
6098;DHT22;3077;50.922;6.584;2023-07-16T01:32:09;18.90;99.90
6098;DHT22;3077;50.922;6.584;2023-07-16T01:34:37;18.90;99.90
6098;DHT22;3077;50.922;6.584;2023-07-16T01:37:04;18.90;99.90
6098;DHT22;3077;50.922;6.584;2023-07-16T01:39:30;18.90;99.90
6098;DHT22;3077;50.922;6.584;2023-07-16T01:41:58;18.90;99.90
6098;DHT22;3077;50.922;6.584;2023-07-16T01:44:23;18.80;99.90
6098;DHT22;3077;50.922;6.584;2023-07-16T01:47:10;18.80;99.90
6098;DHT22;3077;50.922;6.584;2023-07-16T01:49:35;18.90;99.90
6098;DHT22;3077;50.922;6.584;2023-07-16T01:52:02;18.80;99.90
6098;DHT22;3077;50.922;6.584;2023-07-16T01:54:28;18.80;99.90
6098;DHT22;3077;50.922;6.584;2023-07-16T01:56:54;18.80;99.90
6098;DHT22;3077;50.922;6.584;2023-07-16T01:59:19;18.90;99.90
6098;DHT22;3077;50.922;6.584;2023-07-16T02:01:45;18.80;99.90
6098;DHT22;3077;50.922;6.584;2023-07-16T02:04:10;18.80;99.90
6098;DHT22;3077;50.922;6.584;2023-07-16T02:06:36;18.80;99.90
6098;DHT22;3077;50.922;6.584;2023-07-16T02:09:01;18.80;99.90
6098;DHT22;3077;50.922;6.584;2023-07-16T02:11:28;18.80;99.90
6098;DHT22;3077;50.922;6.584;2023-07-16T02:13:54;18.70;99.90
6098;DHT22;3077;50.922;6.584;2023-07-16T02:16:19;18.70;99.90
6098;DHT22;3077;50.922;6.584;2023-07-16T02:18:45;18.80;99.90
6098;DHT22;3077;50.922;6.584;2023-07-16T02:21:10;18.70;99.90
6098;DHT22;3077;50.922;6.584;2023-07-16T02:23:36;18.70;99.90
6098;DHT22;3077;50.922;6.584;2023-07-16T02:26:02;18.70;99.90
6098;DHT22;3077;50.922;6.584;2023-07-16T02:28:28;18.70;99.90
6098;DHT22;3077;50.922;6.584;2023-07-16T02:30:53;18.70;99.90
6098;DHT22;3077;50.922;6.584;2023-07-16T02:33:19;18.70;99.90
6098;DHT22;3077;50.922;6.584;2023-07-16T02:35:48;18.70;99.90
6098;DHT22;3077;50.922;6.584;2023-07-16T02:38:15;18.70;99.90
6098;DHT22;3077;50.922;6.584;2023-07-16T02:40:47;18.60;99.90
6098;DHT22;3077;50.922;6.584;2023-07-16T02:43:14;18.60;99.90
6098;DHT22;3077;50.922;6.584;2023-07-16T02:45:40;18.60;99.90
6098;DHT22;3077;50.922;6.584;2023-07-16T02:48:06;18.50;99.90
6098;DHT22;3077;50.922;6.584;2023-07-16T02:50:38;18.50;99.90
6098;DHT22;3077;50.922;6.584;2023-07-16T02:53:05;18.50;99.90
6098;DHT22;3077;50.922;6.584;2023-07-16T02:55:31;18.50;99.90
6098;DHT22;3077;50.922;6.584;2023-07-16T02:57:57;18.50;99.90
6098;DHT22;3077;50.922;6.584;2023-07-16T03:00:23;18.40;99.90
6098;DHT22;3077;50.922;6.584;2023-07-16T03:02:48;18.40;99.90
6098;DHT22;3077;50.922;6.584;2023-07-16T03:05:17;18.40;99.90
6098;DHT22;3077;50.922;6.584;2023-07-16T03:07:43;18.40;99.90
6098;DHT22;3077;50.922;6.584;2023-07-16T03:10:09;18.30;99.90
6098;DHT22;3077;50.922;6.584;2023-07-16T03:12:34;18.30;99.90
6098;DHT22;3077;50.922;6.584;2023-07-16T03:15:00;18.20;99.90
6098;DHT22;3077;50.922;6.584;2023-07-16T03:17:25;18.20;99.90
6098;DHT22;3077;50.922;6.584;2023-07-16T03:19:51;18.20;99.90
6098;DHT22;3077;50.922;6.584;2023-07-16T03:22:17;18.20;99.90
6098;DHT22;3077;50.922;6.584;2023-07-16T03:24:42;18.20;99.90
6098;DHT22;3077;50.922;6.584;2023-07-16T03:27:08;18.10;99.90
6098;DHT22;3077;50.922;6.584;2023-07-16T03:29:33;18.10;99.90
6098;DHT22;3077;50.922;6.584;2023-07-16T03:31:59;18.10;99.90
6098;DHT22;3077;50.922;6.584;2023-07-16T03:34:25;18.10;99.90
6098;DHT22;3077;50.922;6.584;2023-07-16T03:36:51;18.10;99.90
6098;DHT22;3077;50.922;6.584;2023-07-16T03:39:16;18.10;99.90
6098;DHT22;3077;50.922;6.584;2023-07-16T03:41:42;18.00;99.90
6098;DHT22;3077;50.922;6.584;2023-07-16T03:44:08;18.00;99.90
6098;DHT22;3077;50.922;6.584;2023-07-16T03:46:33;18.10;99.90
6098;DHT22;3077;50.922;6.584;2023-07-16T03:48:59;18.00;99.90
6098;DHT22;3077;50.922;6.584;2023-07-16T03:51:24;17.90;99.90
6098;DHT22;3077;50.922;6.584;2023-07-16T03:53:50;17.90;99.90
6098;DHT22;3077;50.922;6.584;2023-07-16T03:56:16;17.90;99.90
6098;DHT22;3077;50.922;6.584;2023-07-16T03:58:41;17.90;99.90
6098;DHT22;3077;50.922;6.584;2023-07-16T04:01:07;17.90;99.90
6098;DHT22;3077;50.922;6.584;2023-07-16T04:03:32;17.90;99.90
6098;DHT22;3077;50.922;6.584;2023-07-16T04:06:09;18.00;99.90
6098;DHT22;3077;50.922;6.584;2023-07-16T04:08:35;17.90;99.90
6098;DHT22;3077;50.922;6.584;2023-07-16T04:11:01;17.90;99.90
6098;DHT22;3077;50.922;6.584;2023-07-16T04:13:27;17.90;99.90
6098;DHT22;3077;50.922;6.584;2023-07-16T04:15:52;17.90;99.90
6098;DHT22;3077;50.922;6.584;2023-07-16T04:18:22;18.00;99.90
6098;DHT22;3077;50.922;6.584;2023-07-16T04:20:48;18.00;99.90
6098;DHT22;3077;50.922;6.584;2023-07-16T04:23:14;18.00;99.90
6098;DHT22;3077;50.922;6.584;2023-07-16T04:25:39;18.10;99.90
6098;DHT22;3077;50.922;6.584;2023-07-16T04:28:05;18.10;99.90
6098;DHT22;3077;50.922;6.584;2023-07-16T04:30:30;18.10;99.90
6098;DHT22;3077;50.922;6.584;2023-07-16T04:32:56;18.10;99.90
6098;DHT22;3077;50.922;6.584;2023-07-16T04:35:21;18.10;99.90
6098;DHT22;3077;50.922;6.584;2023-07-16T04:37:47;18.10;99.90
6098;DHT22;3077;50.922;6.584;2023-07-16T04:40:13;18.20;99.90
6098;DHT22;3077;50.922;6.584;2023-07-16T04:42:38;18.10;99.90
6098;DHT22;3077;50.922;6.584;2023-07-16T04:45:05;18.10;99.90
6098;DHT22;3077;50.922;6.584;2023-07-16T04:47:31;18.20;99.90
6098;DHT22;3077;50.922;6.584;2023-07-16T04:49:58;18.20;99.90
6098;DHT22;3077;50.922;6.584;2023-07-16T04:52:24;18.10;99.90
6098;DHT22;3077;50.922;6.584;2023-07-16T04:54:49;18.20;99.90
6098;DHT22;3077;50.922;6.584;2023-07-16T04:57:15;18.20;99.90
6098;DHT22;3077;50.922;6.584;2023-07-16T04:59:41;18.20;99.90
6098;DHT22;3077;50.922;6.584;2023-07-16T05:02:06;18.20;99.90
6098;DHT22;3077;50.922;6.584;2023-07-16T05:04:33;18.20;99.90
6098;DHT22;3077;50.922;6.584;2023-07-16T05:07:00;18.20;99.90
6098;DHT22;3077;50.922;6.584;2023-07-16T05:09:26;18.30;99.90
6098;DHT22;3077;50.922;6.584;2023-07-16T05:11:51;18.30;99.90
6098;DHT22;3077;50.922;6.584;2023-07-16T05:14:17;18.30;99.90
6098;DHT22;3077;50.922;6.584;2023-07-16T05:16:42;18.30;99.90
6098;DHT22;3077;50.922;6.584;2023-07-16T05:19:08;18.40;99.90
6098;DHT22;3077;50.922;6.584;2023-07-16T05:21:33;18.40;99.90
6098;DHT22;3077;50.922;6.584;2023-07-16T05:23:59;18.30;99.90
6098;DHT22;3077;50.922;6.584;2023-07-16T05:26:25;18.40;99.90
6098;DHT22;3077;50.922;6.584;2023-07-16T05:28:50;18.40;99.90
6098;DHT22;3077;50.922;6.584;2023-07-16T05:31:16;18.50;99.90
6098;DHT22;3077;50.922;6.584;2023-07-16T05:33:41;18.50;99.90
6098;DHT22;3077;50.922;6.584;2023-07-16T05:36:07;18.50;99.90
6098;DHT22;3077;50.922;6.584;2023-07-16T05:38:32;18.50;99.90
6098;DHT22;3077;50.922;6.584;2023-07-16T05:41:02;18.60;99.90
6098;DHT22;3077;50.922;6.584;2023-07-16T05:43:28;18.60;99.90
6098;DHT22;3077;50.922;6.584;2023-07-16T05:45:54;18.60;99.90
6098;DHT22;3077;50.922;6.584;2023-07-16T05:48:20;18.60;99.90
6098;DHT22;3077;50.922;6.584;2023-07-16T05:50:45;18.60;99.90
6098;DHT22;3077;50.922;6.584;2023-07-16T05:53:11;18.70;99.90
6098;DHT22;3077;50.922;6.584;2023-07-16T05:55:39;18.70;99.90
6098;DHT22;3077;50.922;6.584;2023-07-16T05:58:05;18.70;99.90
6098;DHT22;3077;50.922;6.584;2023-07-16T06:00:30;18.70;99.90
6098;DHT22;3077;50.922;6.584;2023-07-16T06:02:56;18.70;99.90
6098;DHT22;3077;50.922;6.584;2023-07-16T06:05:22;18.70;99.90
6098;DHT22;3077;50.922;6.584;2023-07-16T06:07:48;18.70;99.90
6098;DHT22;3077;50.922;6.584;2023-07-16T06:10:13;18.60;99.90
6098;DHT22;3077;50.922;6.584;2023-07-16T06:12:39;18.60;99.90
6098;DHT22;3077;50.922;6.584;2023-07-16T06:15:05;18.60;99.90
6098;DHT22;3077;50.922;6.584;2023-07-16T06:17:30;18.60;99.90
6098;DHT22;3077;50.922;6.584;2023-07-16T06:19:56;18.70;99.90
6098;DHT22;3077;50.922;6.584;2023-07-16T06:22:23;18.70;99.90
6098;DHT22;3077;50.922;6.584;2023-07-16T06:24:48;18.60;99.90
6098;DHT22;3077;50.922;6.584;2023-07-16T06:27:14;18.60;99.90
6098;DHT22;3077;50.922;6.584;2023-07-16T06:29:39;18.70;99.90
6098;DHT22;3077;50.922;6.584;2023-07-16T06:32:05;18.70;99.90
6098;DHT22;3077;50.922;6.584;2023-07-16T06:34:31;18.70;99.90
6098;DHT22;3077;50.922;6.584;2023-07-16T06:36:57;18.70;99.90
6098;DHT22;3077;50.922;6.584;2023-07-16T06:39:22;18.80;99.90
6098;DHT22;3077;50.922;6.584;2023-07-16T06:41:48;18.80;99.90
6098;DHT22;3077;50.922;6.584;2023-07-16T06:44:13;18.80;99.90
6098;DHT22;3077;50.922;6.584;2023-07-16T06:46:39;18.90;99.90
6098;DHT22;3077;50.922;6.584;2023-07-16T06:49:06;18.90;99.90
6098;DHT22;3077;50.922;6.584;2023-07-16T06:51:32;18.90;99.90
6098;DHT22;3077;50.922;6.584;2023-07-16T06:53:59;19.00;99.90
6098;DHT22;3077;50.922;6.584;2023-07-16T06:56:25;19.00;99.90
6098;DHT22;3077;50.922;6.584;2023-07-16T06:58:50;19.10;99.90
6098;DHT22;3077;50.922;6.584;2023-07-16T07:01:16;19.10;99.90
6098;DHT22;3077;50.922;6.584;2023-07-16T07:03:41;19.00;99.90
6098;DHT22;3077;50.922;6.584;2023-07-16T07:06:07;19.00;99.90
6098;DHT22;3077;50.922;6.584;2023-07-16T07:08:36;19.10;99.90
6098;DHT22;3077;50.922;6.584;2023-07-16T07:11:02;19.10;99.90
6098;DHT22;3077;50.922;6.584;2023-07-16T07:13:27;19.10;99.90
6098;DHT22;3077;50.922;6.584;2023-07-16T07:15:55;19.20;99.90
6098;DHT22;3077;50.922;6.584;2023-07-16T07:18:20;19.20;99.90
6098;DHT22;3077;50.922;6.584;2023-07-16T07:20:46;19.30;99.90
6098;DHT22;3077;50.922;6.584;2023-07-16T07:23:13;19.30;99.90
6098;DHT22;3077;50.922;6.584;2023-07-16T07:25:39;19.40;99.90
6098;DHT22;3077;50.922;6.584;2023-07-16T07:28:04;19.40;99.90
6098;DHT22;3077;50.922;6.584;2023-07-16T07:30:30;19.40;99.90
6098;DHT22;3077;50.922;6.584;2023-07-16T07:32:56;19.50;99.90
6098;DHT22;3077;50.922;6.584;2023-07-16T07:35:21;19.50;99.90
6098;DHT22;3077;50.922;6.584;2023-07-16T07:37:47;19.50;99.90
6098;DHT22;3077;50.922;6.584;2023-07-16T07:40:13;19.60;99.90
6098;DHT22;3077;50.922;6.584;2023-07-16T07:42:38;19.60;99.90
6098;DHT22;3077;50.922;6.584;2023-07-16T07:45:05;19.70;99.90
6098;DHT22;3077;50.922;6.584;2023-07-16T07:47:30;19.70;99.90
6098;DHT22;3077;50.922;6.584;2023-07-16T07:49:57;19.60;99.90
6098;DHT22;3077;50.922;6.584;2023-07-16T07:52:23;19.70;99.90
6098;DHT22;3077;50.922;6.584;2023-07-16T07:54:48;19.70;99.90
6098;DHT22;3077;50.922;6.584;2023-07-16T07:57:14;19.80;99.90
6098;DHT22;3077;50.922;6.584;2023-07-16T07:59:40;19.90;99.90
6098;DHT22;3077;50.922;6.584;2023-07-16T08:02:06;20.00;99.90
6098;DHT22;3077;50.922;6.584;2023-07-16T08:04:31;20.10;99.90
6098;DHT22;3077;50.922;6.584;2023-07-16T08:06:57;20.20;99.90
6098;DHT22;3077;50.922;6.584;2023-07-16T08:09:25;20.30;99.90
6098;DHT22;3077;50.922;6.584;2023-07-16T08:11:51;20.30;99.90
6098;DHT22;3077;50.922;6.584;2023-07-16T08:14:16;20.30;99.90
6098;DHT22;3077;50.922;6.584;2023-07-16T08:16:42;20.30;99.90
6098;DHT22;3077;50.922;6.584;2023-07-16T08:19:07;20.30;99.90
6098;DHT22;3077;50.922;6.584;2023-07-16T08:21:33;20.40;99.90
6098;DHT22;3077;50.922;6.584;2023-07-16T08:23:59;20.40;99.90
6098;DHT22;3077;50.922;6.584;2023-07-16T08:26:25;20.40;99.90
6098;DHT22;3077;50.922;6.584;2023-07-16T08:28:50;20.50;99.90
6098;DHT22;3077;50.922;6.584;2023-07-16T08:31:16;20.60;99.90
6098;DHT22;3077;50.922;6.584;2023-07-16T08:33:41;20.70;99.90
6098;DHT22;3077;50.922;6.584;2023-07-16T08:36:09;20.60;99.90
6098;DHT22;3077;50.922;6.584;2023-07-16T08:38:34;20.70;99.90
6098;DHT22;3077;50.922;6.584;2023-07-16T08:41:00;20.60;99.90
6098;DHT22;3077;50.922;6.584;2023-07-16T08:43:27;20.80;99.90
6098;DHT22;3077;50.922;6.584;2023-07-16T08:45:53;20.80;99.90
6098;DHT22;3077;50.922;6.584;2023-07-16T08:48:19;20.90;99.90
6098;DHT22;3077;50.922;6.584;2023-07-16T08:50:48;21.00;99.90
6098;DHT22;3077;50.922;6.584;2023-07-16T08:53:18;21.10;99.90
6098;DHT22;3077;50.922;6.584;2023-07-16T08:55:45;21.10;99.90
6098;DHT22;3077;50.922;6.584;2023-07-16T08:58:14;21.20;99.90
6098;DHT22;3077;50.922;6.584;2023-07-16T09:00:44;21.40;99.90
6098;DHT22;3077;50.922;6.584;2023-07-16T09:03:13;21.50;99.90
6098;DHT22;3077;50.922;6.584;2023-07-16T09:05:39;21.60;99.90
6098;DHT22;3077;50.922;6.584;2023-07-16T09:08:06;21.60;99.20
6098;DHT22;3077;50.922;6.584;2023-07-16T09:10:32;21.70;98.90
6098;DHT22;3077;50.922;6.584;2023-07-16T09:12:58;21.70;97.40
6098;DHT22;3077;50.922;6.584;2023-07-16T09:15:25;21.50;95.80
6098;DHT22;3077;50.922;6.584;2023-07-16T09:17:53;21.40;97.70
6098;DHT22;3077;50.922;6.584;2023-07-16T09:20:20;21.30;96.20
6098;DHT22;3077;50.922;6.584;2023-07-16T09:22:47;21.40;97.00
6098;DHT22;3077;50.922;6.584;2023-07-16T09:25:13;21.50;98.20
6098;DHT22;3077;50.922;6.584;2023-07-16T09:27:38;21.50;96.40
6098;DHT22;3077;50.922;6.584;2023-07-16T09:30:05;21.60;96.20
6098;DHT22;3077;50.922;6.584;2023-07-16T09:32:38;21.50;95.90
6098;DHT22;3077;50.922;6.584;2023-07-16T09:35:13;21.50;95.40
6098;DHT22;3077;50.922;6.584;2023-07-16T09:37:39;21.50;96.00
6098;DHT22;3077;50.922;6.584;2023-07-16T09:40:06;21.40;94.10
6098;DHT22;3077;50.922;6.584;2023-07-16T09:42:38;21.40;95.20
6098;DHT22;3077;50.922;6.584;2023-07-16T09:45:06;21.50;94.40
6098;DHT22;3077;50.922;6.584;2023-07-16T09:47:32;21.40;94.70
6098;DHT22;3077;50.922;6.584;2023-07-16T09:49:58;21.40;94.80
6098;DHT22;3077;50.922;6.584;2023-07-16T09:52:26;21.70;94.60
6098;DHT22;3077;50.922;6.584;2023-07-16T09:54:55;22.00;94.70
6098;DHT22;3077;50.922;6.584;2023-07-16T09:57:23;22.10;91.70
6098;DHT22;3077;50.922;6.584;2023-07-16T09:59:52;22.20;92.40
6098;DHT22;3077;50.922;6.584;2023-07-16T10:02:20;22.40;90.40
6098;DHT22;3077;50.922;6.584;2023-07-16T10:04:46;22.40;90.70
6098;DHT22;3077;50.922;6.584;2023-07-16T10:07:24;22.60;89.80
6098;DHT22;3077;50.922;6.584;2023-07-16T10:09:56;22.40;82.40
6098;DHT22;3077;50.922;6.584;2023-07-16T10:12:24;22.30;78.70
6098;DHT22;3077;50.922;6.584;2023-07-16T10:14:52;22.40;85.90
6098;DHT22;3077;50.922;6.584;2023-07-16T10:17:25;22.40;82.50
6098;DHT22;3077;50.922;6.584;2023-07-16T10:22:45;23.00;83.60
6098;DHT22;3077;50.922;6.584;2023-07-16T10:27:44;23.60;78.20
6098;DHT22;3077;50.922;6.584;2023-07-16T10:30:10;23.40;65.60
6098;DHT22;3077;50.922;6.584;2023-07-16T10:32:36;23.30;66.80
6098;DHT22;3077;50.922;6.584;2023-07-16T10:35:04;23.40;60.80
6098;DHT22;3077;50.922;6.584;2023-07-16T10:37:30;23.60;65.30
6098;DHT22;3077;50.922;6.584;2023-07-16T10:39:58;23.90;60.60
6098;DHT22;3077;50.922;6.584;2023-07-16T10:42:26;23.80;57.60
6098;DHT22;3077;50.922;6.584;2023-07-16T10:45:03;23.70;55.90
6098;DHT22;3077;50.922;6.584;2023-07-16T10:47:36;23.80;57.50
6098;DHT22;3077;50.922;6.584;2023-07-16T10:50:07;23.90;52.20
6098;DHT22;3077;50.922;6.584;2023-07-16T10:52:34;24.00;50.40
6098;DHT22;3077;50.922;6.584;2023-07-16T10:55:00;23.80;50.50
6098;DHT22;3077;50.922;6.584;2023-07-16T10:57:27;23.70;52.20
6098;DHT22;3077;50.922;6.584;2023-07-16T10:59:54;23.70;53.00
6098;DHT22;3077;50.922;6.584;2023-07-16T11:02:21;23.60;52.60
6098;DHT22;3077;50.922;6.584;2023-07-16T11:04:48;23.50;50.60
6098;DHT22;3077;50.922;6.584;2023-07-16T11:07:15;23.40;53.20
6098;DHT22;3077;50.922;6.584;2023-07-16T11:09:45;23.60;53.90
6098;DHT22;3077;50.922;6.584;2023-07-16T11:12:14;23.80;49.60
6098;DHT22;3077;50.922;6.584;2023-07-16T11:14:46;24.10;51.50
6098;DHT22;3077;50.922;6.584;2023-07-16T11:17:13;24.50;52.20
6098;DHT22;3077;50.922;6.584;2023-07-16T11:19:40;24.50;43.70
6098;DHT22;3077;50.922;6.584;2023-07-16T11:22:09;24.40;42.60
6098;DHT22;3077;50.922;6.584;2023-07-16T11:24:48;24.40;44.30
6098;DHT22;3077;50.922;6.584;2023-07-16T11:27:15;24.30;45.40
6098;DHT22;3077;50.922;6.584;2023-07-16T11:30:00;24.10;44.90
6098;DHT22;3077;50.922;6.584;2023-07-16T11:32:43;24.30;44.20
6098;DHT22;3077;50.922;6.584;2023-07-16T11:35:14;24.40;40.80
6098;DHT22;3077;50.922;6.584;2023-07-16T11:37:41;24.50;40.70
6098;DHT22;3077;50.922;6.584;2023-07-16T11:40:08;24.80;41.10
6098;DHT22;3077;50.922;6.584;2023-07-16T11:42:39;24.90;42.60
6098;DHT22;3077;50.922;6.584;2023-07-16T11:45:15;25.10;36.50
6098;DHT22;3077;50.922;6.584;2023-07-16T11:47:40;25.00;35.20
6098;DHT22;3077;50.922;6.584;2023-07-16T11:50:06;24.90;35.10
6098;DHT22;3077;50.922;6.584;2023-07-16T11:52:32;25.20;34.60
6098;DHT22;3077;50.922;6.584;2023-07-16T11:54:59;25.30;32.40
6098;DHT22;3077;50.922;6.584;2023-07-16T11:57:29;25.30;29.90
6098;DHT22;3077;50.922;6.584;2023-07-16T11:59:55;25.50;29.80
6098;DHT22;3077;50.922;6.584;2023-07-16T12:02:21;25.60;28.30
6098;DHT22;3077;50.922;6.584;2023-07-16T12:04:48;25.40;28.10
6098;DHT22;3077;50.922;6.584;2023-07-16T12:07:13;25.40;29.10
6098;DHT22;3077;50.922;6.584;2023-07-16T12:09:39;25.90;29.80
6098;DHT22;3077;50.922;6.584;2023-07-16T12:12:05;25.60;26.10
6098;DHT22;3077;50.922;6.584;2023-07-16T12:14:31;25.30;29.40
6098;DHT22;3077;50.922;6.584;2023-07-16T12:16:57;25.30;29.80
6098;DHT22;3077;50.922;6.584;2023-07-16T12:19:23;25.70;26.10
6098;DHT22;3077;50.922;6.584;2023-07-16T12:21:49;25.90;26.00
6098;DHT22;3077;50.922;6.584;2023-07-16T12:24:15;26.60;24.80
6098;DHT22;3077;50.922;6.584;2023-07-16T12:26:40;27.40;26.90
6098;DHT22;3077;50.922;6.584;2023-07-16T12:29:06;27.00;21.70
6098;DHT22;3077;50.922;6.584;2023-07-16T12:31:31;27.10;21.20
6098;DHT22;3077;50.922;6.584;2023-07-16T12:33:58;27.20;20.40
6098;DHT22;3077;50.922;6.584;2023-07-16T12:36:24;26.70;18.20
6098;DHT22;3077;50.922;6.584;2023-07-16T12:38:50;26.90;18.40
6098;DHT22;3077;50.922;6.584;2023-07-16T12:41:16;26.40;18.70
6098;DHT22;3077;50.922;6.584;2023-07-16T12:43:41;26.20;20.30
6098;DHT22;3077;50.922;6.584;2023-07-16T12:46:07;25.70;19.90
6098;DHT22;3077;50.922;6.584;2023-07-16T12:48:33;25.60;19.30
6098;DHT22;3077;50.922;6.584;2023-07-16T12:50:59;25.70;19.60
6098;DHT22;3077;50.922;6.584;2023-07-16T12:53:25;25.80;18.40
6098;DHT22;3077;50.922;6.584;2023-07-16T12:55:51;26.60;17.30
6098;DHT22;3077;50.922;6.584;2023-07-16T12:58:17;27.40;17.20
6098;DHT22;3077;50.922;6.584;2023-07-16T13:00:42;27.60;15.20
6098;DHT22;3077;50.922;6.584;2023-07-16T13:03:08;27.50;15.00
6098;DHT22;3077;50.922;6.584;2023-07-16T13:05:37;27.80;14.50
6098;DHT22;3077;50.922;6.584;2023-07-16T13:08:03;28.00;12.50
6098;DHT22;3077;50.922;6.584;2023-07-16T13:10:29;27.50;12.20
6098;DHT22;3077;50.922;6.584;2023-07-16T13:12:54;27.10;14.50
6098;DHT22;3077;50.922;6.584;2023-07-16T13:15:20;26.90;13.50
6098;DHT22;3077;50.922;6.584;2023-07-16T13:17:45;26.60;14.70
6098;DHT22;3077;50.922;6.584;2023-07-16T13:20:13;26.20;15.50
6098;DHT22;3077;50.922;6.584;2023-07-16T13:22:38;26.50;17.30
6098;DHT22;3077;50.922;6.584;2023-07-16T13:25:04;27.00;14.90
6098;DHT22;3077;50.922;6.584;2023-07-16T13:27:30;27.10;14.70
6098;DHT22;3077;50.922;6.584;2023-07-16T13:29:55;27.50;12.90
6098;DHT22;3077;50.922;6.584;2023-07-16T13:32:21;27.10;11.90
6098;DHT22;3077;50.922;6.584;2023-07-16T13:34:46;26.70;12.60
6098;DHT22;3077;50.922;6.584;2023-07-16T13:37:12;26.40;12.30
6098;DHT22;3077;50.922;6.584;2023-07-16T13:39:39;26.90;15.00
6098;DHT22;3077;50.922;6.584;2023-07-16T13:42:05;27.60;12.60
6098;DHT22;3077;50.922;6.584;2023-07-16T13:44:34;27.60;11.00
6098;DHT22;3077;50.922;6.584;2023-07-16T13:47:00;27.30;12.00
6098;DHT22;3077;50.922;6.584;2023-07-16T13:49:26;27.10;13.10
6098;DHT22;3077;50.922;6.584;2023-07-16T13:51:51;27.20;11.40
6098;DHT22;3077;50.922;6.584;2023-07-16T13:54:17;27.50;12.20
6098;DHT22;3077;50.922;6.584;2023-07-16T13:56:42;28.00;11.80
6098;DHT22;3077;50.922;6.584;2023-07-16T13:59:08;28.00;9.90
6098;DHT22;3077;50.922;6.584;2023-07-16T14:01:38;27.70;10.00
6098;DHT22;3077;50.922;6.584;2023-07-16T14:04:04;27.60;10.30
6098;DHT22;3077;50.922;6.584;2023-07-16T14:06:30;27.30;12.40
6098;DHT22;3077;50.922;6.584;2023-07-16T14:08:55;27.20;11.50
6098;DHT22;3077;50.922;6.584;2023-07-16T14:11:21;27.00;11.50
6098;DHT22;3077;50.922;6.584;2023-07-16T14:13:47;27.00;12.70
6098;DHT22;3077;50.922;6.584;2023-07-16T14:16:25;26.90;13.60
6098;DHT22;3077;50.922;6.584;2023-07-16T14:18:52;26.80;13.60
6098;DHT22;3077;50.922;6.584;2023-07-16T14:21:19;26.40;12.60
6098;DHT22;3077;50.922;6.584;2023-07-16T14:23:45;26.30;14.00
6098;DHT22;3077;50.922;6.584;2023-07-16T14:26:11;26.00;13.10
6098;DHT22;3077;50.922;6.584;2023-07-16T14:28:37;25.90;13.60
6098;DHT22;3077;50.922;6.584;2023-07-16T14:31:02;25.90;13.80
6098;DHT22;3077;50.922;6.584;2023-07-16T14:33:28;26.10;13.60
6098;DHT22;3077;50.922;6.584;2023-07-16T14:35:54;26.50;13.30
6098;DHT22;3077;50.922;6.584;2023-07-16T14:38:19;26.80;12.10
6098;DHT22;3077;50.922;6.584;2023-07-16T14:40:45;26.80;11.40
6098;DHT22;3077;50.922;6.584;2023-07-16T14:43:11;26.80;12.00
6098;DHT22;3077;50.922;6.584;2023-07-16T14:45:37;26.60;11.90
6098;DHT22;3077;50.922;6.584;2023-07-16T14:48:04;26.80;11.70
6098;DHT22;3077;50.922;6.584;2023-07-16T14:50:30;26.90;10.90
6098;DHT22;3077;50.922;6.584;2023-07-16T14:52:55;27.20;11.50
6098;DHT22;3077;50.922;6.584;2023-07-16T14:55:21;27.30;11.00
6098;DHT22;3077;50.922;6.584;2023-07-16T14:57:48;27.00;10.90
6098;DHT22;3077;50.922;6.584;2023-07-16T15:00:14;26.80;11.80
6098;DHT22;3077;50.922;6.584;2023-07-16T15:02:40;26.90;11.50
6098;DHT22;3077;50.922;6.584;2023-07-16T15:05:07;27.30;11.30
6098;DHT22;3077;50.922;6.584;2023-07-16T15:07:34;27.20;10.10
6098;DHT22;3077;50.922;6.584;2023-07-16T15:10:00;27.10;11.70
6098;DHT22;3077;50.922;6.584;2023-07-16T15:12:25;27.30;12.50
6098;DHT22;3077;50.922;6.584;2023-07-16T15:14:51;27.30;11.30
6098;DHT22;3077;50.922;6.584;2023-07-16T15:17:17;27.70;11.80
6098;DHT22;3077;50.922;6.584;2023-07-16T15:19:43;28.80;12.40
6098;DHT22;3077;50.922;6.584;2023-07-16T15:22:09;29.30;9.60
6098;DHT22;3077;50.922;6.584;2023-07-16T15:24:35;29.90;8.20
6098;DHT22;3077;50.922;6.584;2023-07-16T15:27:01;29.80;6.70
6098;DHT22;3077;50.922;6.584;2023-07-16T15:29:26;29.40;5.90
6098;DHT22;3077;50.922;6.584;2023-07-16T15:31:52;29.20;6.60
6098;DHT22;3077;50.922;6.584;2023-07-16T15:34:17;29.30;7.90
6098;DHT22;3077;50.922;6.584;2023-07-16T15:36:43;29.10;6.30
6098;DHT22;3077;50.922;6.584;2023-07-16T15:39:10;29.10;6.40
6098;DHT22;3077;50.922;6.584;2023-07-16T15:41:35;29.60;5.70
6098;DHT22;3077;50.922;6.584;2023-07-16T15:44:01;29.90;6.30
6098;DHT22;3077;50.922;6.584;2023-07-16T15:46:29;29.80;4.50
6098;DHT22;3077;50.922;6.584;2023-07-16T15:48:54;29.30;3.70
6098;DHT22;3077;50.922;6.584;2023-07-16T15:51:20;29.00;5.00
6098;DHT22;3077;50.922;6.584;2023-07-16T15:53:46;28.90;5.00
6098;DHT22;3077;50.922;6.584;2023-07-16T15:56:12;29.10;4.50
6098;DHT22;3077;50.922;6.584;2023-07-16T15:58:38;29.30;4.40
6098;DHT22;3077;50.922;6.584;2023-07-16T16:01:04;29.50;3.70
6098;DHT22;3077;50.922;6.584;2023-07-16T16:03:30;30.10;2.40